Capitol Logistics 416




KBNA
Nashville International Airport
Nashville, Tennessee
KBWI
Baltimore/Washington International Airport
Baltimore, Maryland

Activity Log

Date Flight Route Aircraft Duration
09/20/2021 CPX416 SWAPP J42 BKW B752 1h 32m
05/15/2021 CPX416 CHADM3 SWAPP J42 BKW RAVNN6 B738 1h 47m
04/27/2021 CPX416 CHADM3 SWAPP J42 BKW J213 DOCCS MRB EMI7 B752 1h 36m
04/13/2021 CPX416 CHADM3 SWAPP J42 BKW RAVNN6 B738 1h 49m

Route Details

Aircraft Information
Group: Narrowbodies
Types: B738,B752
Route Data
Demand: V
Distance: 510nm
Duration: 1h 34m
Recm'd Route: CHADM3 SWAPP J42 BKW RAVNN6
Origin Wx: KBNA 242153Z 18008KT 6SM -RA BR BKN032 BKN050 OVC075 22/19 A3000 RMK AO2 PK WND 20040/2125 LTG DSNT NW RAB26 TSB26E50 SLP155 CB DSNT N P0056 T02170189
Dest. Wx: KBWI 242154Z 08011KT 10SM FEW028 BKN044 OVC070 18/10 A3025 RMK AO2 SLP241 T01780100
Notes:

Financial History
Total Freight: 161,998lbs
Average Load: 40,500lbs/flt
Fuel Used: 40,234lbs
Avg. Fuel Used: 10,059lbs/flt
Fuel Expense: $14,883
Avg. Fuel Expense: $3,721
Avg. Fuel Cost: $0.37/lbs
Total Gross Income: $343,720
Pilot Pay: $626
Total Expenses: $49,282
Total Revenue: $278,489
Average Revenue: $85,930.10